FDX774 MHLM-MSLP
Flight info
| Callsign | FDX774 |
|---|---|
| Flight time | 0h 28m |
| Altitude | 16000 |
| Route | SAP DCT TIRNA DCT NAGEL DCT ATUMA ATUMA2M |
| Aircraft | B763/H-SDE3FGHIM3RWXY/LB1 |
Departure
| Time | 2026-05-04 00:13 |
|---|---|
| Airport | Ramón Villeda Morales International Airport (MHLM) |
Arrival
| Time | 2026-05-04 00:41 |
|---|---|
| Airport | El Salvador International Airport Saint Óscar Arnulfo Romero y Galdámez (MSLP) |
| Time | Latitude | Longitude | Altitude | Speed | Heading |
|---|---|---|---|---|---|
| 2026-05-03 23:52 | 15.46291 | -87.91925 | 109 ft | 0 kts | 310° |
| 2026-05-04 00:02 | 15.46285 | -87.91919 | 109 ft | 2 kts | 329° |
| 2026-05-04 00:03 | 15.46271 | -87.91914 | 109 ft | 2 kts | 360° |
| 2026-05-04 00:03 | 15.46257 | -87.91917 | 109 ft | 2 kts | 28° |
| 2026-05-04 00:03 | 15.46245 | -87.91926 | 109 ft | 2 kts | 44° |
| 2026-05-04 00:03 | 15.46234 | -87.91936 | 109 ft | 2 kts | 41° |
| 2026-05-04 00:04 | 15.46223 | -87.91946 | 109 ft | 1 kts | 40° |
| 2026-05-04 00:04 | 15.46221 | -87.91948 | 109 ft | 0 kts | 41° |
| 2026-05-04 00:06 | 15.46222 | -87.91948 | 109 ft | 1 kts | 41° |
| 2026-05-04 00:06 | 15.46253 | -87.91913 | 109 ft | 8 kts | 68° |
| 2026-05-04 00:06 | 15.46237 | -87.91859 | 109 ft | 7 kts | 126° |
| 2026-05-04 00:06 | 15.46208 | -87.91821 | 109 ft | 7 kts | 129° |
| 2026-05-04 00:07 | 15.46153 | -87.91767 | 109 ft | 11 kts | 162° |
| 2026-05-04 00:07 | 15.46070 | -87.91814 | 109 ft | 19 kts | 221° |
| 2026-05-04 00:07 | 15.45952 | -87.91918 | 110 ft | 22 kts | 219° |
| 2026-05-04 00:07 | 15.45839 | -87.92015 | 112 ft | 19 kts | 220° |
| 2026-05-04 00:08 | 15.45734 | -87.92107 | 111 ft | 19 kts | 220° |
| 2026-05-04 00:08 | 15.45638 | -87.92190 | 112 ft | 17 kts | 220° |
| 2026-05-04 00:08 | 15.45548 | -87.92268 | 113 ft | 15 kts | 220° |
| 2026-05-04 00:08 | 15.45447 | -87.92358 | 113 ft | 24 kts | 221° |
| 2026-05-04 00:09 | 15.45304 | -87.92484 | 113 ft | 26 kts | 219° |
| 2026-05-04 00:09 | 15.45163 | -87.92603 | 114 ft | 25 kts | 219° |
| 2026-05-04 00:09 | 15.45026 | -87.92723 | 115 ft | 27 kts | 221° |
| 2026-05-04 00:09 | 15.44878 | -87.92855 | 115 ft | 27 kts | 220° |
| 2026-05-04 00:10 | 15.44736 | -87.92977 | 115 ft | 25 kts | 220° |
| 2026-05-04 00:10 | 15.44603 | -87.93094 | 116 ft | 23 kts | 220° |
| 2026-05-04 00:10 | 15.44485 | -87.93198 | 119 ft | 20 kts | 220° |
| 2026-05-04 00:10 | 15.44377 | -87.93291 | 119 ft | 19 kts | 220° |
| 2026-05-04 00:11 | 15.44281 | -87.93353 | 121 ft | 11 kts | 179° |
| 2026-05-04 00:11 | 15.44251 | -87.93309 | 121 ft | 7 kts | 102° |
| 2026-05-04 00:11 | 15.44242 | -87.93264 | 121 ft | 5 kts | 99° |
| 2026-05-04 00:11 | 15.44251 | -87.93241 | 121 ft | 2 kts | 50° |
| 2026-05-04 00:12 | 15.44268 | -87.93225 | 121 ft | 4 kts | 42° |
| 2026-05-04 00:12 | 15.44324 | -87.93174 | 120 ft | 33 kts | 39° |
| 2026-05-04 00:12 | 15.44727 | -87.92822 | 117 ft | 116 kts | 40° |
| 2026-05-04 00:12 | 15.45531 | -87.92120 | 174 ft | 182 kts | 41° |
| 2026-05-04 00:13 | 15.46467 | -87.91164 | 1113 ft | 191 kts | 57° |
| 2026-05-04 00:13 | 15.46807 | -87.89960 | 1994 ft | 183 kts | 91° |
| 2026-05-04 00:13 | 15.46298 | -87.88664 | 2148 ft | 208 kts | 131° |
| 2026-05-04 00:13 | 15.45005 | -87.87913 | 2448 ft | 225 kts | 169° |
| 2026-05-04 00:14 | 15.43394 | -87.88058 | 2667 ft | 246 kts | 203° |
| 2026-05-04 00:14 | 15.41990 | -87.89135 | 2940 ft | 264 kts | 234° |
| 2026-05-04 00:14 | 15.41000 | -87.90768 | 3471 ft | 272 kts | 241° |
| 2026-05-04 00:14 | 15.40013 | -87.92483 | 4046 ft | 282 kts | 240° |
| 2026-05-04 00:15 | 15.38969 | -87.94205 | 4794 ft | 285 kts | 234° |
| 2026-05-04 00:15 | 15.37634 | -87.95747 | 5539 ft | 289 kts | 223° |
| 2026-05-04 00:15 | 15.36070 | -87.97071 | 6267 ft | 293 kts | 217° |
| 2026-05-04 00:15 | 15.34399 | -87.98283 | 7017 ft | 295 kts | 213° |
| 2026-05-04 00:16 | 15.32666 | -87.99429 | 7707 ft | 300 kts | 211° |
| 2026-05-04 00:16 | 15.30861 | -88.00554 | 8445 ft | 303 kts | 210° |
| 2026-05-04 00:16 | 15.29035 | -88.01654 | 9138 ft | 307 kts | 209° |
| 2026-05-04 00:16 | 15.27164 | -88.02760 | 9885 ft | 311 kts | 208° |
| 2026-05-04 00:17 | 15.25284 | -88.03859 | 10519 ft | 318 kts | 208° |
| 2026-05-04 00:17 | 15.23276 | -88.05026 | 10841 ft | 338 kts | 208° |
| 2026-05-04 00:17 | 15.21178 | -88.06239 | 11243 ft | 354 kts | 208° |
| 2026-05-04 00:17 | 15.18960 | -88.07523 | 11637 ft | 371 kts | 208° |
| 2026-05-04 00:18 | 15.16671 | -88.08843 | 12031 ft | 387 kts | 208° |
| 2026-05-04 00:18 | 15.14277 | -88.10226 | 12721 ft | 392 kts | 208° |
| 2026-05-04 00:18 | 15.11907 | -88.11593 | 13466 ft | 395 kts | 208° |
| 2026-05-04 00:18 | 15.09493 | -88.12986 | 14090 ft | 401 kts | 208° |
| 2026-05-04 00:19 | 15.07028 | -88.14408 | 14822 ft | 404 kts | 208° |
| 2026-05-04 00:19 | 15.04557 | -88.15833 | 15411 ft | 409 kts | 208° |
| 2026-05-04 00:19 | 15.02058 | -88.17273 | 15965 ft | 415 kts | 208° |
| 2026-05-04 00:19 | 14.99472 | -88.18761 | 16046 ft | 433 kts | 208° |
| 2026-05-04 00:20 | 14.96787 | -88.20306 | 16065 ft | 450 kts | 208° |
| 2026-05-04 00:20 | 14.94023 | -88.21897 | 16056 ft | 460 kts | 208° |
| 2026-05-04 00:20 | 14.91236 | -88.23502 | 16058 ft | 458 kts | 208° |
| 2026-05-04 00:20 | 14.88414 | -88.25125 | 16061 ft | 455 kts | 208° |
| 2026-05-04 00:21 | 14.85707 | -88.26683 | 16064 ft | 440 kts | 208° |
| 2026-05-04 00:21 | 14.83075 | -88.28197 | 16072 ft | 420 kts | 208° |
| 2026-05-04 00:21 | 14.80572 | -88.29636 | 16090 ft | 408 kts | 208° |
| 2026-05-04 00:21 | 14.78066 | -88.31075 | 16123 ft | 409 kts | 208° |
| 2026-05-04 00:22 | 14.75586 | -88.32497 | 16150 ft | 414 kts | 208° |
| 2026-05-04 00:22 | 14.73025 | -88.33968 | 16161 ft | 415 kts | 208° |
| 2026-05-04 00:22 | 14.70516 | -88.35407 | 16176 ft | 415 kts | 208° |
| 2026-05-04 00:22 | 14.67987 | -88.36858 | 16183 ft | 414 kts | 208° |
| 2026-05-04 00:23 | 14.65475 | -88.38298 | 16192 ft | 414 kts | 208° |
| 2026-05-04 00:23 | 14.62928 | -88.39758 | 16200 ft | 415 kts | 208° |
| 2026-05-04 00:23 | 14.60399 | -88.41207 | 16202 ft | 417 kts | 208° |
| 2026-05-04 00:23 | 14.57866 | -88.42659 | 16199 ft | 415 kts | 208° |
| 2026-05-04 00:24 | 14.55323 | -88.44115 | 16192 ft | 413 kts | 208° |
| 2026-05-04 00:24 | 14.52834 | -88.45541 | 16191 ft | 414 kts | 208° |
| 2026-05-04 00:24 | 14.50279 | -88.47004 | 16173 ft | 414 kts | 208° |
| 2026-05-04 00:24 | 14.47788 | -88.48429 | 16180 ft | 414 kts | 208° |
| 2026-05-04 00:25 | 14.45246 | -88.49886 | 16195 ft | 415 kts | 208° |
| 2026-05-04 00:25 | 14.42718 | -88.51331 | 16206 ft | 415 kts | 208° |
| 2026-05-04 00:25 | 14.40199 | -88.52772 | 16223 ft | 413 kts | 208° |
| 2026-05-04 00:25 | 14.37668 | -88.54219 | 16224 ft | 405 kts | 208° |
| 2026-05-04 00:26 | 14.35249 | -88.55603 | 16228 ft | 394 kts | 208° |
| 2026-05-04 00:26 | 14.32858 | -88.56969 | 16238 ft | 391 kts | 207° |
| 2026-05-04 00:26 | 14.30452 | -88.58343 | 16092 ft | 401 kts | 208° |
| 2026-05-04 00:26 | 14.28010 | -88.59737 | 15841 ft | 402 kts | 208° |
| 2026-05-04 00:27 | 14.25568 | -88.61134 | 15449 ft | 398 kts | 208° |
| 2026-05-04 00:27 | 14.23157 | -88.62511 | 15115 ft | 391 kts | 208° |
| 2026-05-04 00:27 | 14.20780 | -88.63869 | 14797 ft | 388 kts | 208° |
| 2026-05-04 00:27 | 14.18419 | -88.65218 | 14471 ft | 386 kts | 208° |
| 2026-05-04 00:28 | 14.16047 | -88.66573 | 14145 ft | 387 kts | 208° |
| 2026-05-04 00:28 | 14.13686 | -88.67921 | 13801 ft | 387 kts | 208° |
| 2026-05-04 00:28 | 14.11357 | -88.69250 | 13440 ft | 385 kts | 208° |
| 2026-05-04 00:28 | 14.09024 | -88.70583 | 13086 ft | 380 kts | 208° |
| 2026-05-04 00:29 | 14.06698 | -88.71909 | 12754 ft | 377 kts | 208° |
| 2026-05-04 00:29 | 14.04419 | -88.73209 | 12406 ft | 376 kts | 207° |
| 2026-05-04 00:29 | 14.02122 | -88.74519 | 12110 ft | 374 kts | 208° |
| 2026-05-04 00:29 | 13.99873 | -88.75803 | 12028 ft | 367 kts | 208° |
| 2026-05-04 00:30 | 13.97614 | -88.77091 | 12029 ft | 370 kts | 208° |
| 2026-05-04 00:30 | 13.95300 | -88.78410 | 11669 ft | 388 kts | 208° |
| 2026-05-04 00:30 | 13.92937 | -88.79758 | 11101 ft | 389 kts | 208° |
| 2026-05-04 00:30 | 13.90629 | -88.81074 | 10995 ft | 373 kts | 208° |
| 2026-05-04 00:31 | 13.88372 | -88.82361 | 10440 ft | 366 kts | 208° |
| 2026-05-04 00:31 | 13.86185 | -88.83607 | 10069 ft | 352 kts | 208° |
| 2026-05-04 00:31 | 13.84083 | -88.84806 | 9755 ft | 337 kts | 208° |
| 2026-05-04 00:31 | 13.82080 | -88.85948 | 9480 ft | 322 kts | 207° |
| 2026-05-04 00:32 | 13.80154 | -88.87047 | 9288 ft | 307 kts | 207° |
| 2026-05-04 00:32 | 13.78303 | -88.88100 | 9081 ft | 298 kts | 207° |
| 2026-05-04 00:32 | 13.76487 | -88.89129 | 8679 ft | 298 kts | 206° |
| 2026-05-04 00:32 | 13.74541 | -88.89767 | 8241 ft | 294 kts | 180° |
| 2026-05-04 00:33 | 13.72535 | -88.89493 | 7761 ft | 287 kts | 156° |
| 2026-05-04 00:33 | 13.68834 | -88.88384 | 7298 ft | 265 kts | 167° |
| 2026-05-04 00:33 | 13.67066 | -88.88060 | 7213 ft | 251 kts | 169° |
| 2026-05-04 00:34 | 13.65368 | -88.87807 | 7107 ft | 244 kts | 170° |
| 2026-05-04 00:34 | 13.63674 | -88.87591 | 6873 ft | 242 kts | 171° |
| 2026-05-04 00:34 | 13.62016 | -88.87402 | 6714 ft | 236 kts | 172° |
| 2026-05-04 00:34 | 13.60381 | -88.87225 | 6377 ft | 237 kts | 172° |
| 2026-05-04 00:35 | 13.58712 | -88.87053 | 5953 ft | 238 kts | 173° |
| 2026-05-04 00:35 | 13.57077 | -88.86890 | 5594 ft | 236 kts | 173° |
| 2026-05-04 00:35 | 13.55460 | -88.86729 | 5347 ft | 228 kts | 173° |
| 2026-05-04 00:35 | 13.53924 | -88.86580 | 5278 ft | 209 kts | 173° |
| 2026-05-04 00:36 | 13.52473 | -88.86481 | 4877 ft | 211 kts | 185° |
| 2026-05-04 00:36 | 13.51129 | -88.86970 | 4407 ft | 204 kts | 214° |
| 2026-05-04 00:36 | 13.50285 | -88.88035 | 3973 ft | 190 kts | 253° |
| 2026-05-04 00:36 | 13.49910 | -88.89290 | 3719 ft | 175 kts | 256° |
| 2026-05-04 00:37 | 13.49539 | -88.90438 | 3450 ft | 166 kts | 251° |
| 2026-05-04 00:37 | 13.49112 | -88.91544 | 3083 ft | 171 kts | 250° |
| 2026-05-04 00:37 | 13.48656 | -88.92693 | 2602 ft | 174 kts | 250° |
| 2026-05-04 00:37 | 13.48206 | -88.93834 | 2119 ft | 177 kts | 250° |
| 2026-05-04 00:38 | 13.47785 | -88.95005 | 1769 ft | 168 kts | 254° |
| 2026-05-04 00:38 | 13.47449 | -88.96102 | 1609 ft | 157 kts | 252° |
| 2026-05-04 00:38 | 13.47090 | -88.97174 | 1446 ft | 160 kts | 252° |
| 2026-05-04 00:38 | 13.46710 | -88.98270 | 1276 ft | 163 kts | 252° |
| 2026-05-04 00:39 | 13.46329 | -88.99349 | 1072 ft | 162 kts | 251° |
| 2026-05-04 00:39 | 13.45943 | -89.00432 | 883 ft | 159 kts | 251° |
| 2026-05-04 00:39 | 13.45565 | -89.01489 | 722 ft | 160 kts | 251° |
| 2026-05-04 00:39 | 13.45176 | -89.02576 | 485 ft | 161 kts | 251° |
| 2026-05-04 00:40 | 13.44794 | -89.03637 | 267 ft | 157 kts | 251° |
| 2026-05-04 00:40 | 13.44417 | -89.04689 | 118 ft | 154 kts | 250° |
| 2026-05-04 00:40 | 13.44050 | -89.05709 | 105 ft | 156 kts | 252° |
| 2026-05-04 00:40 | 13.43780 | -89.06525 | 94 ft | 68 kts | 236° |
| 2026-05-04 00:41 | 13.43670 | -89.06673 | 89 ft | 6 kts | 277° |
| 2026-05-04 00:41 | 13.43672 | -89.06679 | 89 ft | 2 kts | 288° |
| 2026-05-04 00:41 | 13.43650 | -89.06808 | 89 ft | 27 kts | 251° |
| 2026-05-04 00:41 | 13.43626 | -89.06946 | 86 ft | 13 kts | 302° |
| 2026-05-04 00:42 | 13.43704 | -89.06992 | 87 ft | 4 kts | 339° |
| 2026-05-04 00:42 | 13.43735 | -89.07004 | 87 ft | 4 kts | 339° |
| 2026-05-04 00:42 | 13.43777 | -89.06990 | 88 ft | 8 kts | 57° |
| 2026-05-04 00:42 | 13.43800 | -89.06933 | 89 ft | 7 kts | 68° |
| 2026-05-04 00:43 | 13.43816 | -89.06890 | 91 ft | 6 kts | 69° |
| 2026-05-04 00:43 | 13.43833 | -89.06844 | 92 ft | 6 kts | 69° |
| 2026-05-04 00:43 | 13.43846 | -89.06808 | 93 ft | 4 kts | 70° |
| 2026-05-04 00:43 | 13.43863 | -89.06760 | 94 ft | 8 kts | 70° |
| 2026-05-04 00:44 | 13.43879 | -89.06712 | 95 ft | 6 kts | 70° |
| 2026-05-04 00:44 | 13.43902 | -89.06644 | 96 ft | 16 kts | 71° |
| 2026-05-04 00:44 | 13.43954 | -89.06498 | 99 ft | 18 kts | 69° |
| 2026-05-04 00:44 | 13.43996 | -89.06434 | 101 ft | 7 kts | 20° |
| 2026-05-04 00:45 | 13.44038 | -89.06434 | 102 ft | 5 kts | 7° |
| 2026-05-04 00:45 | 13.44082 | -89.06381 | 103 ft | 12 kts | 69° |
| 2026-05-04 00:45 | 13.44107 | -89.06307 | 105 ft | 9 kts | 72° |
| 2026-05-04 00:45 | 13.44132 | -89.06235 | 106 ft | 13 kts | 69° |
| 2026-05-04 00:46 | 13.44162 | -89.06188 | 107 ft | 3 kts | 14° |
| 2026-05-04 00:46 | 13.44195 | -89.06194 | 109 ft | 5 kts | 341° |
| 2026-05-04 00:46 | 13.44224 | -89.06204 | 110 ft | 3 kts | 341° |
| 2026-05-04 00:46 | 13.44231 | -89.06207 | 110 ft | 0 kts | 341° |